Southeastern Grand Banks: Past 24 Hour Conditions

 

Banquereau - 44139

10:00 PM AST 27 November 2014Buoy position: 44.27N 57.08W
This table is a summary of hourly weather conditions for the past 24 hours.
Date / Time
(AST)
Wind(knots) Wave height(m) Wave period(s) Pressure(kPa) Air tempC) Water tempC)
27 November 2014
22:00 W 23 gust 29 5.6 11.0 100.7 7 8
21:00 W 23 gust 31 4.8 11.0 100.6 7 8
20:00 WSW 25 gust 31 4.8 11.0 100.5 9 8
19:00 WSW 25 gust 31 4.4 10.0 100.4 10 9
18:00 SW 21 gust 25 4.5 10.0 100.3 10 9
17:00 SW 21 gust 25 4.2 9.0 100.2 11 9
16:00 SW 21 gust 25 3.9 9.0 100.2 11 9
15:00 SW 19 gust 25 3.8 9.0 100.2 12 9
14:00 SSW 23 gust 27 4.0 8.0 100.1 13 9
13:00 SSW 25 gust 33 3.7 8.0 100.0 14 9
12:00 N/A N/A N/A N/A N/A N/A
11:00 S 27 gust 35 3.3 7.0 100.2 15 9
10:00 S 25 gust 31 3.0 7.0 100.4 14 9
9:00 S 25 gust 33 2.8 6.0 100.5 14 8
8:00 S 25 gust 31 2.7 6.0 100.6 14 8
7:00 S 25 gust 29 2.4 6.0 100.6 14 8
6:00 S 21 gust 23 2.4 5.0 100.8 13 9
5:00 S 18 gust 23 2.4 9.0 100.9 13 9
4:00 ESE 14 gust 16 2.3 5.0 101.1 10 9
3:00 ESE 21 gust 31 2.3 9.0 101.3 9 9
2:00 E 18 gust 23 2.2 10.0 101.5 8 9
1:00 E 21 gust 25 2.0 10.0 101.7 7 8
0:00 E 18 gust 21 1.9 9.0 101.9 7 8
26 November 2014
23:00 E 16 gust 19 2.0 10.0 102.0 8 8
22:00 E 14 gust 16 1.9 10.0 102.1 8 8
 
Map of Atlantic - Newfoundland marine weather areas Southwestern Grand Banks - 44138 Banquereau - 44139 Tail of the Bank - 44140 Nickerson Bank - 44251 Northeast Burgeo Bank - 44255 Blanc-Sablon Airport Cap Whittle Chevery Natashquan Airport Heath Point Miscou Island Grand Étang Ingonish Beach North Mountain St.Paul Island J.A. Douglas McCurdy Sydney Airport Charlottetown Airport East Point North Cape Argentia Bonavista Burgeo Cape Race Corner Brook Daniel's Harbour Englee Ferolle Point La Scie Port aux Basques Rocky Harbour Sagona Island St. Anthony Airport St. John's Int'l Airport St. Lawrence Stephenville Airport Twillingate Winterland Wreckhouse Cartwright Airport Mary's Harbour Grates Cove Pool's Island Marticot Island Long Pond Îles de la Madeleine Airport
Legend: buoyBuoy land stationLand Station